sensor_id;sensor_type;location;lat;lon;timestamp;temperature;humidity
71096;DHT22;58753;49.440;11.126;2024-01-15T00:02:11;-3.92;83.62
71096;DHT22;58753;49.440;11.126;2024-01-15T00:04:43;-3.92;83.81
71096;DHT22;58753;49.440;11.126;2024-01-15T00:07:08;-3.96;83.76
71096;DHT22;58753;49.440;11.126;2024-01-15T00:09:34;-3.93;83.88
71096;DHT22;58753;49.440;11.126;2024-01-15T00:12:00;-3.93;83.93
71096;DHT22;58753;49.440;11.126;2024-01-15T00:14:28;-3.89;83.92
71096;DHT22;58753;49.440;11.126;2024-01-15T00:16:54;-3.89;84.11
71096;DHT22;58753;49.440;11.126;2024-01-15T00:19:25;-3.85;84.22
71096;DHT22;58753;49.440;11.126;2024-01-15T00:21:54;-3.79;83.99
71096;DHT22;58753;49.440;11.126;2024-01-15T00:24:19;-3.79;83.76
71096;DHT22;58753;49.440;11.126;2024-01-15T00:26:48;-3.83;83.72
71096;DHT22;58753;49.440;11.126;2024-01-15T00:29:13;-3.88;83.79
71096;DHT22;58753;49.440;11.126;2024-01-15T00:31:38;-3.93;83.90
71096;DHT22;58753;49.440;11.126;2024-01-15T00:34:04;-3.91;84.05
71096;DHT22;58753;49.440;11.126;2024-01-15T00:36:29;-3.95;83.95
71096;DHT22;58753;49.440;11.126;2024-01-15T00:38:54;-3.95;84.36
71096;DHT22;58753;49.440;11.126;2024-01-15T00:41:20;-3.92;84.71
71096;DHT22;58753;49.440;11.126;2024-01-15T00:43:48;-3.89;84.64
71096;DHT22;58753;49.440;11.126;2024-01-15T00:46:16;-3.91;84.54
71096;DHT22;58753;49.440;11.126;2024-01-15T00:48:41;-3.93;84.67
71096;DHT22;58753;49.440;11.126;2024-01-15T00:51:09;-3.91;84.98
71096;DHT22;58753;49.440;11.126;2024-01-15T00:53:34;-3.85;84.80
71096;DHT22;58753;49.440;11.126;2024-01-15T00:56:00;-3.82;84.82
71096;DHT22;58753;49.440;11.126;2024-01-15T00:58:26;-3.85;84.87
71096;DHT22;58753;49.440;11.126;2024-01-15T01:00:56;-3.79;84.90
71096;DHT22;58753;49.440;11.126;2024-01-15T01:03:22;-3.78;85.02
71096;DHT22;58753;49.440;11.126;2024-01-15T01:05:50;-3.77;84.98
71096;DHT22;58753;49.440;11.126;2024-01-15T01:08:20;-3.75;85.04
71096;DHT22;58753;49.440;11.126;2024-01-15T01:10:46;-3.74;85.02
71096;DHT22;58753;49.440;11.126;2024-01-15T01:13:13;-3.72;85.12
71096;DHT22;58753;49.440;11.126;2024-01-15T01:15:39;-3.71;85.13
71096;DHT22;58753;49.440;11.126;2024-01-15T01:18:04;-3.67;85.22
71096;DHT22;58753;49.440;11.126;2024-01-15T01:20:30;-3.62;85.10
71096;DHT22;58753;49.440;11.126;2024-01-15T01:22:55;-3.62;85.26
71096;DHT22;58753;49.440;11.126;2024-01-15T01:25:23;-3.60;85.49
71096;DHT22;58753;49.440;11.126;2024-01-15T01:27:48;-3.57;85.58
71096;DHT22;58753;49.440;11.126;2024-01-15T01:30:14;-3.55;85.40
71096;DHT22;58753;49.440;11.126;2024-01-15T01:32:39;-3.51;85.51
71096;DHT22;58753;49.440;11.126;2024-01-15T01:35:05;-3.51;85.45
71096;DHT22;58753;49.440;11.126;2024-01-15T01:37:30;-3.48;85.61
71096;DHT22;58753;49.440;11.126;2024-01-15T01:39:55;-3.46;85.79
71096;DHT22;58753;49.440;11.126;2024-01-15T01:42:21;-3.44;85.58
71096;DHT22;58753;49.440;11.126;2024-01-15T01:44:48;-3.34;85.63
71096;DHT22;58753;49.440;11.126;2024-01-15T01:47:16;-3.31;85.43
71096;DHT22;58753;49.440;11.126;2024-01-15T01:49:44;-3.28;85.31
71096;DHT22;58753;49.440;11.126;2024-01-15T01:52:10;-3.30;85.44
71096;DHT22;58753;49.440;11.126;2024-01-15T01:54:40;-3.28;85.53
71096;DHT22;58753;49.440;11.126;2024-01-15T01:57:12;-3.27;85.61
71096;DHT22;58753;49.440;11.126;2024-01-15T01:59:40;-3.26;85.84
71096;DHT22;58753;49.440;11.126;2024-01-15T02:02:08;-3.28;85.99
71096;DHT22;58753;49.440;11.126;2024-01-15T02:04:33;-3.21;85.87
71096;DHT22;58753;49.440;11.126;2024-01-15T02:07:01;-3.20;85.93
71096;DHT22;58753;49.440;11.126;2024-01-15T02:09:27;-3.21;85.98
71096;DHT22;58753;49.440;11.126;2024-01-15T02:11:53;-3.20;86.24
71096;DHT22;58753;49.440;11.126;2024-01-15T02:14:18;-3.18;86.24
71096;DHT22;58753;49.440;11.126;2024-01-15T02:16:44;-3.17;86.35
71096;DHT22;58753;49.440;11.126;2024-01-15T02:19:16;-3.10;86.54
71096;DHT22;58753;49.440;11.126;2024-01-15T02:21:49;-3.08;86.36
71096;DHT22;58753;49.440;11.126;2024-01-15T02:24:15;-3.08;86.51
71096;DHT22;58753;49.440;11.126;2024-01-15T02:26:40;-3.06;86.61
71096;DHT22;58753;49.440;11.126;2024-01-15T02:29:07;-3.04;86.49
71096;DHT22;58753;49.440;11.126;2024-01-15T02:31:38;-3.01;86.66
71096;DHT22;58753;49.440;11.126;2024-01-15T02:34:05;-3.00;86.67
71096;DHT22;58753;49.440;11.126;2024-01-15T02:36:33;-3.00;86.82
71096;DHT22;58753;49.440;11.126;2024-01-15T02:38:58;-2.95;86.71
71096;DHT22;58753;49.440;11.126;2024-01-15T02:41:26;-2.99;86.78
71096;DHT22;58753;49.440;11.126;2024-01-15T02:43:52;-2.93;86.82
71096;DHT22;58753;49.440;11.126;2024-01-15T02:46:17;-2.89;86.61
71096;DHT22;58753;49.440;11.126;2024-01-15T02:48:43;-2.89;86.69
71096;DHT22;58753;49.440;11.126;2024-01-15T02:51:08;-2.92;86.74
71096;DHT22;58753;49.440;11.126;2024-01-15T02:53:35;-2.87;86.79
71096;DHT22;58753;49.440;11.126;2024-01-15T02:56:03;-2.82;86.64
71096;DHT22;58753;49.440;11.126;2024-01-15T02:58:28;-2.82;86.66
71096;DHT22;58753;49.440;11.126;2024-01-15T03:00:56;-2.82;86.75
71096;DHT22;58753;49.440;11.126;2024-01-15T03:03:21;-2.83;86.82
71096;DHT22;58753;49.440;11.126;2024-01-15T03:05:46;-2.85;86.93
71096;DHT22;58753;49.440;11.126;2024-01-15T03:08:12;-2.85;87.02
71096;DHT22;58753;49.440;11.126;2024-01-15T03:10:37;-2.85;87.23
71096;DHT22;58753;49.440;11.126;2024-01-15T03:13:03;-2.73;87.14
71096;DHT22;58753;49.440;11.126;2024-01-15T03:15:28;-2.76;87.14
71096;DHT22;58753;49.440;11.126;2024-01-15T03:17:56;-2.80;87.25
71096;DHT22;58753;49.440;11.126;2024-01-15T03:20:22;-2.80;87.39
71096;DHT22;58753;49.440;11.126;2024-01-15T03:22:47;-2.82;87.52
71096;DHT22;58753;49.440;11.126;2024-01-15T03:25:12;-2.80;87.68
71096;DHT22;58753;49.440;11.126;2024-01-15T03:27:38;-2.79;87.89
71096;DHT22;58753;49.440;11.126;2024-01-15T03:30:03;-2.80;87.80
71096;DHT22;58753;49.440;11.126;2024-01-15T03:32:29;-2.80;87.99
71096;DHT22;58753;49.440;11.126;2024-01-15T03:34:54;-2.80;88.03
71096;DHT22;58753;49.440;11.126;2024-01-15T03:37:22;-2.79;88.15
71096;DHT22;58753;49.440;11.126;2024-01-15T03:39:47;-2.75;88.07
71096;DHT22;58753;49.440;11.126;2024-01-15T03:42:15;-2.70;88.07
71096;DHT22;58753;49.440;11.126;2024-01-15T03:44:41;-2.70;88.05
71096;DHT22;58753;49.440;11.126;2024-01-15T03:47:06;-2.66;88.07
71096;DHT22;58753;49.440;11.126;2024-01-15T03:49:36;-2.69;88.04
71096;DHT22;58753;49.440;11.126;2024-01-15T03:52:02;-2.69;88.13
71096;DHT22;58753;49.440;11.126;2024-01-15T03:54:27;-2.70;88.18
71096;DHT22;58753;49.440;11.126;2024-01-15T03:56:55;-2.66;88.21
71096;DHT22;58753;49.440;11.126;2024-01-15T03:59:20;-2.65;88.17
71096;DHT22;58753;49.440;11.126;2024-01-15T04:01:49;-2.61;88.06
71096;DHT22;58753;49.440;11.126;2024-01-15T04:04:16;-2.62;88.05
71096;DHT22;58753;49.440;11.126;2024-01-15T04:06:41;-2.62;88.00
71096;DHT22;58753;49.440;11.126;2024-01-15T04:09:07;-2.62;88.03
71096;DHT22;58753;49.440;11.126;2024-01-15T04:11:32;-2.62;88.06
71096;DHT22;58753;49.440;11.126;2024-01-15T04:13:59;-2.59;88.10
71096;DHT22;58753;49.440;11.126;2024-01-15T04:16:25;-2.56;88.01
71096;DHT22;58753;49.440;11.126;2024-01-15T04:18:53;-2.56;87.94
71096;DHT22;58753;49.440;11.126;2024-01-15T04:21:18;-2.58;88.11
71096;DHT22;58753;49.440;11.126;2024-01-15T04:23:43;-2.55;88.07
71096;DHT22;58753;49.440;11.126;2024-01-15T04:26:14;-2.55;88.03
71096;DHT22;58753;49.440;11.126;2024-01-15T04:28:42;-2.53;88.03
71096;DHT22;58753;49.440;11.126;2024-01-15T04:31:07;-2.49;88.05
71096;DHT22;58753;49.440;11.126;2024-01-15T04:33:32;-2.46;87.90
71096;DHT22;58753;49.440;11.126;2024-01-15T04:36:01;-2.45;87.96
71096;DHT22;58753;49.440;11.126;2024-01-15T04:38:29;-2.37;87.66
71096;DHT22;58753;49.440;11.126;2024-01-15T04:40:55;-2.31;87.36
71096;DHT22;58753;49.440;11.126;2024-01-15T04:43:20;-2.30;87.50
71096;DHT22;58753;49.440;11.126;2024-01-15T04:45:48;-2.31;87.55
71096;DHT22;58753;49.440;11.126;2024-01-15T04:48:16;-2.28;87.49
71096;DHT22;58753;49.440;11.126;2024-01-15T04:50:43;-2.28;87.39
71096;DHT22;58753;49.440;11.126;2024-01-15T04:53:09;-2.24;87.46
71096;DHT22;58753;49.440;11.126;2024-01-15T04:55:34;-2.27;87.35
71096;DHT22;58753;49.440;11.126;2024-01-15T04:57:59;-2.25;87.45
71096;DHT22;58753;49.440;11.126;2024-01-15T05:00:25;-2.24;87.41
71096;DHT22;58753;49.440;11.126;2024-01-15T05:02:50;-2.25;87.35
71096;DHT22;58753;49.440;11.126;2024-01-15T05:05:16;-2.30;87.47
71096;DHT22;58753;49.440;11.126;2024-01-15T05:07:41;-2.28;87.50
71096;DHT22;58753;49.440;11.126;2024-01-15T05:10:07;-2.22;87.45
71096;DHT22;58753;49.440;11.126;2024-01-15T05:12:34;-2.24;87.48
71096;DHT22;58753;49.440;11.126;2024-01-15T05:15:00;-2.27;87.48
71096;DHT22;58753;49.440;11.126;2024-01-15T05:17:25;-2.22;87.50
71096;DHT22;58753;49.440;11.126;2024-01-15T05:19:51;-2.24;87.50
71096;DHT22;58753;49.440;11.126;2024-01-15T05:22:16;-2.25;87.39
71096;DHT22;58753;49.440;11.126;2024-01-15T05:24:41;-2.24;87.43
71096;DHT22;58753;49.440;11.126;2024-01-15T05:27:09;-2.18;87.19
71096;DHT22;58753;49.440;11.126;2024-01-15T05:29:37;-2.17;87.15
71096;DHT22;58753;49.440;11.126;2024-01-15T05:32:02;-2.22;87.20
71096;DHT22;58753;49.440;11.126;2024-01-15T05:34:28;-2.24;87.25
71096;DHT22;58753;49.440;11.126;2024-01-15T05:36:55;-2.20;87.24
71096;DHT22;58753;49.440;11.126;2024-01-15T05:39:23;-2.14;87.24
71096;DHT22;58753;49.440;11.126;2024-01-15T05:41:51;-2.15;87.10
71096;DHT22;58753;49.440;11.126;2024-01-15T05:44:16;-2.15;87.06
71096;DHT22;58753;49.440;11.126;2024-01-15T05:46:42;-2.11;87.06
71096;DHT22;58753;49.440;11.126;2024-01-15T05:49:12;-2.10;86.94
71096;DHT22;58753;49.440;11.126;2024-01-15T05:51:37;-2.04;86.74
71096;DHT22;58753;49.440;11.126;2024-01-15T05:54:03;-2.07;86.75
71096;DHT22;58753;49.440;11.126;2024-01-15T05:56:31;-1.95;86.41
71096;DHT22;58753;49.440;11.126;2024-01-15T05:58:59;-1.94;86.28
71096;DHT22;58753;49.440;11.126;2024-01-15T06:01:24;-1.90;86.11
71096;DHT22;58753;49.440;11.126;2024-01-15T06:03:49;-1.89;86.02
71096;DHT22;58753;49.440;11.126;2024-01-15T06:06:15;-1.89;85.99
71096;DHT22;58753;49.440;11.126;2024-01-15T06:08:40;-1.86;85.95
71096;DHT22;58753;49.440;11.126;2024-01-15T06:11:06;-1.83;85.85
71096;DHT22;58753;49.440;11.126;2024-01-15T06:13:36;-1.79;85.71
71096;DHT22;58753;49.440;11.126;2024-01-15T06:16:04;-1.86;85.83
71096;DHT22;58753;49.440;11.126;2024-01-15T06:18:39;-1.86;85.97
71096;DHT22;58753;49.440;11.126;2024-01-15T06:21:07;-1.83;85.93
71096;DHT22;58753;49.440;11.126;2024-01-15T06:23:33;-1.81;85.95
71096;DHT22;58753;49.440;11.126;2024-01-15T06:25:58;-1.84;85.96
71096;DHT22;58753;49.440;11.126;2024-01-15T06:28:23;-1.83;86.03
71096;DHT22;58753;49.440;11.126;2024-01-15T06:30:51;-1.79;86.04
71096;DHT22;58753;49.440;11.126;2024-01-15T06:33:16;-1.73;85.92
71096;DHT22;58753;49.440;11.126;2024-01-15T06:35:42;-1.71;85.70
71096;DHT22;58753;49.440;11.126;2024-01-15T06:38:07;-1.69;85.75
71096;DHT22;58753;49.440;11.126;2024-01-15T06:40:32;-1.73;85.94
71096;DHT22;58753;49.440;11.126;2024-01-15T06:42:58;-1.76;86.24
71096;DHT22;58753;49.440;11.126;2024-01-15T06:45:28;-1.84;86.47
71096;DHT22;58753;49.440;11.126;2024-01-15T06:47:53;-1.89;86.81
71096;DHT22;58753;49.440;11.126;2024-01-15T06:50:21;-1.90;87.37
71096;DHT22;58753;49.440;11.126;2024-01-15T06:52:46;-1.94;87.78
71096;DHT22;58753;49.440;11.126;2024-01-15T06:55:14;-1.93;88.15
71096;DHT22;58753;49.440;11.126;2024-01-15T06:57:39;-1.93;88.24
71096;DHT22;58753;49.440;11.126;2024-01-15T07:00:05;-1.95;88.40
71096;DHT22;58753;49.440;11.126;2024-01-15T07:02:33;-1.94;88.75
71096;DHT22;58753;49.440;11.126;2024-01-15T07:05:00;-1.94;88.89
71096;DHT22;58753;49.440;11.126;2024-01-15T07:07:26;-1.91;89.00
71096;DHT22;58753;49.440;11.126;2024-01-15T07:09:54;-1.84;88.96
71096;DHT22;58753;49.440;11.126;2024-01-15T07:12:19;-1.84;88.88
71096;DHT22;58753;49.440;11.126;2024-01-15T07:14:49;-1.83;89.01
71096;DHT22;58753;49.440;11.126;2024-01-15T07:17:15;-1.80;88.90
71096;DHT22;58753;49.440;11.126;2024-01-15T07:19:40;-1.79;88.87
71096;DHT22;58753;49.440;11.126;2024-01-15T07:22:06;-1.76;88.81
71096;DHT22;58753;49.440;11.126;2024-01-15T07:24:31;-1.76;88.84
71096;DHT22;58753;49.440;11.126;2024-01-15T07:26:59;-1.74;89.02
71096;DHT22;58753;49.440;11.126;2024-01-15T07:29:26;-1.74;89.12
71096;DHT22;58753;49.440;11.126;2024-01-15T07:31:54;-1.77;89.20
71096;DHT22;58753;49.440;11.126;2024-01-15T07:34:19;-1.80;89.45
71096;DHT22;58753;49.440;11.126;2024-01-15T07:36:45;-1.80;89.59
71096;DHT22;58753;49.440;11.126;2024-01-15T07:39:10;-1.77;89.94
71096;DHT22;58753;49.440;11.126;2024-01-15T07:41:36;-1.76;89.95
71096;DHT22;58753;49.440;11.126;2024-01-15T07:44:05;-1.76;89.88
71096;DHT22;58753;49.440;11.126;2024-01-15T07:46:30;-1.74;90.01
71096;DHT22;58753;49.440;11.126;2024-01-15T07:48:55;-1.63;90.00
71096;DHT22;58753;49.440;11.126;2024-01-15T07:51:24;-1.63;90.07
71096;DHT22;58753;49.440;11.126;2024-01-15T07:53:52;-1.64;90.00
71096;DHT22;58753;49.440;11.126;2024-01-15T07:56:18;-1.66;90.21
71096;DHT22;58753;49.440;11.126;2024-01-15T07:58:46;-1.69;90.22
71096;DHT22;58753;49.440;11.126;2024-01-15T08:01:12;-1.69;90.28
71096;DHT22;58753;49.440;11.126;2024-01-15T08:03:37;-1.64;90.38
71096;DHT22;58753;49.440;11.126;2024-01-15T08:06:03;-1.63;90.44
71096;DHT22;58753;49.440;11.126;2024-01-15T08:08:28;-1.59;90.40
71096;DHT22;58753;49.440;11.126;2024-01-15T08:10:54;-1.59;90.44
71096;DHT22;58753;49.440;11.126;2024-01-15T08:13:19;-1.56;90.45
71096;DHT22;58753;49.440;11.126;2024-01-15T08:15:45;-1.55;90.39
71096;DHT22;58753;49.440;11.126;2024-01-15T08:18:15;-1.53;90.35
71096;DHT22;58753;49.440;11.126;2024-01-15T08:20:40;-1.55;90.39
71096;DHT22;58753;49.440;11.126;2024-01-15T08:23:06;-1.57;90.52
71096;DHT22;58753;49.440;11.126;2024-01-15T08:25:31;-1.53;90.49
71096;DHT22;58753;49.440;11.126;2024-01-15T08:27:57;-1.49;90.42
71096;DHT22;58753;49.440;11.126;2024-01-15T08:30:23;-1.42;90.00
71096;DHT22;58753;49.440;11.126;2024-01-15T08:32:53;-1.35;89.75
71096;DHT22;58753;49.440;11.126;2024-01-15T08:35:18;-1.31;89.57
71096;DHT22;58753;49.440;11.126;2024-01-15T08:37:51;-1.29;89.11
71096;DHT22;58753;49.440;11.126;2024-01-15T08:40:16;-1.28;89.16
71096;DHT22;58753;49.440;11.126;2024-01-15T08:42:44;-1.25;88.92
71096;DHT22;58753;49.440;11.126;2024-01-15T08:45:15;-1.19;88.78
71096;DHT22;58753;49.440;11.126;2024-01-15T08:47:43;-1.18;88.78
71096;DHT22;58753;49.440;11.126;2024-01-15T08:50:11;-1.18;88.82
71096;DHT22;58753;49.440;11.126;2024-01-15T08:52:36;-1.19;88.46
71096;DHT22;58753;49.440;11.126;2024-01-15T08:55:03;-1.18;88.39
71096;DHT22;58753;49.440;11.126;2024-01-15T08:57:29;-1.19;88.45
71096;DHT22;58753;49.440;11.126;2024-01-15T08:59:57;-1.16;88.44
71096;DHT22;58753;49.440;11.126;2024-01-15T09:02:23;-1.13;88.25
71096;DHT22;58753;49.440;11.126;2024-01-15T09:04:49;-1.12;88.18
71096;DHT22;58753;49.440;11.126;2024-01-15T09:07:14;-1.12;88.03
71096;DHT22;58753;49.440;11.126;2024-01-15T09:09:39;-1.09;87.95
71096;DHT22;58753;49.440;11.126;2024-01-15T09:12:08;-1.04;87.93
71096;DHT22;58753;49.440;11.126;2024-01-15T09:14:33;-1.01;87.76
71096;DHT22;58753;49.440;11.126;2024-01-15T09:16:59;-0.95;87.81
71096;DHT22;58753;49.440;11.126;2024-01-15T09:19:24;-0.95;87.65
71096;DHT22;58753;49.440;11.126;2024-01-15T09:21:50;-0.94;87.66
71096;DHT22;58753;49.440;11.126;2024-01-15T09:24:15;-0.92;87.84
71096;DHT22;58753;49.440;11.126;2024-01-15T09:26:43;-0.94;87.96
71096;DHT22;58753;49.440;11.126;2024-01-15T09:29:08;-0.91;88.05
71096;DHT22;58753;49.440;11.126;2024-01-15T09:31:35;-0.94;88.05
71096;DHT22;58753;49.440;11.126;2024-01-15T09:34:00;-0.91;88.05
71096;DHT22;58753;49.440;11.126;2024-01-15T09:36:27;-0.88;88.18
71096;DHT22;58753;49.440;11.126;2024-01-15T09:38:52;-0.87;88.11
71096;DHT22;58753;49.440;11.126;2024-01-15T09:41:20;-0.84;87.93
71096;DHT22;58753;49.440;11.126;2024-01-15T09:43:46;-0.83;87.99
71096;DHT22;58753;49.440;11.126;2024-01-15T09:46:14;-0.77;87.87
71096;DHT22;58753;49.440;11.126;2024-01-15T09:48:42;-0.70;87.62
71096;DHT22;58753;49.440;11.126;2024-01-15T09:51:12;-0.61;87.51
71096;DHT22;58753;49.440;11.126;2024-01-15T09:53:42;-0.53;87.05
71096;DHT22;58753;49.440;11.126;2024-01-15T09:56:08;-0.56;86.52
71096;DHT22;58753;49.440;11.126;2024-01-15T09:58:34;-0.51;86.72
71096;DHT22;58753;49.440;11.126;2024-01-15T10:00:59;-0.47;86.34
71096;DHT22;58753;49.440;11.126;2024-01-15T10:03:28;-0.44;86.25
71096;DHT22;58753;49.440;11.126;2024-01-15T10:06:01;-0.45;85.87
71096;DHT22;58753;49.440;11.126;2024-01-15T10:08:29;-0.41;85.58
71096;DHT22;58753;49.440;11.126;2024-01-15T10:10:59;-0.49;85.53
71096;DHT22;58753;49.440;11.126;2024-01-15T10:13:27;-0.44;85.73
71096;DHT22;58753;49.440;11.126;2024-01-15T10:15:54;-0.44;85.17
71096;DHT22;58753;49.440;11.126;2024-01-15T10:18:20;-0.49;85.02
71096;DHT22;58753;49.440;11.126;2024-01-15T10:20:45;-0.49;85.28
71096;DHT22;58753;49.440;11.126;2024-01-15T10:23:11;-0.45;84.84
71096;DHT22;58753;49.440;11.126;2024-01-15T10:25:37;-0.47;85.06
71096;DHT22;58753;49.440;11.126;2024-01-15T10:28:03;-0.54;85.61
71096;DHT22;58753;49.440;11.126;2024-01-15T10:30:32;-0.58;85.65
71096;DHT22;58753;49.440;11.126;2024-01-15T10:33:01;-0.67;85.86
71096;DHT22;58753;49.440;11.126;2024-01-15T10:35:30;-0.68;86.04
71096;DHT22;58753;49.440;11.126;2024-01-15T10:37:56;-0.61;86.18
71096;DHT22;58753;49.440;11.126;2024-01-15T10:40:21;-0.54;86.16
71096;DHT22;58753;49.440;11.126;2024-01-15T10:42:47;-0.51;86.12
71096;DHT22;58753;49.440;11.126;2024-01-15T10:45:14;-0.51;86.02
71096;DHT22;58753;49.440;11.126;2024-01-15T10:47:43;-0.56;85.80
71096;DHT22;58753;49.440;11.126;2024-01-15T10:50:11;-0.51;85.91
71096;DHT22;58753;49.440;11.126;2024-01-15T10:52:37;-0.50;85.92
71096;DHT22;58753;49.440;11.126;2024-01-15T10:55:04;-0.53;85.86
71096;DHT22;58753;49.440;11.126;2024-01-15T10:57:30;-0.49;85.72
71096;DHT22;58753;49.440;11.126;2024-01-15T10:59:57;-0.51;85.90
71096;DHT22;58753;49.440;11.126;2024-01-15T11:02:28;-0.49;86.22
71096;DHT22;58753;49.440;11.126;2024-01-15T11:04:53;-0.49;86.28
71096;DHT22;58753;49.440;11.126;2024-01-15T11:07:26;-0.47;86.25
71096;DHT22;58753;49.440;11.126;2024-01-15T11:09:51;-0.44;86.05
71096;DHT22;58753;49.440;11.126;2024-01-15T11:12:18;-0.43;85.94
71096;DHT22;58753;49.440;11.126;2024-01-15T11:14:48;-0.36;85.93
71096;DHT22;58753;49.440;11.126;2024-01-15T11:17:15;-0.30;85.90
71096;DHT22;58753;49.440;11.126;2024-01-15T11:22:34;-0.34;85.62
71096;DHT22;58753;49.440;11.126;2024-01-15T11:25:05;-0.31;85.70
71096;DHT22;58753;49.440;11.126;2024-01-15T11:27:49;-0.38;85.48
71096;DHT22;58753;49.440;11.126;2024-01-15T11:30:19;-0.40;85.59
71096;DHT22;58753;49.440;11.126;2024-01-15T11:32:47;-0.37;85.71
71096;DHT22;58753;49.440;11.126;2024-01-15T11:35:13;-0.33;85.62
71096;DHT22;58753;49.440;11.126;2024-01-15T11:43:03;-0.30;86.28
71096;DHT22;58753;49.440;11.126;2024-01-15T11:45:31;-0.26;86.56
71096;DHT22;58753;49.440;11.126;2024-01-15T11:48:16;-0.20;86.34
71096;DHT22;58753;49.440;11.126;2024-01-15T11:50:47;-0.14;85.89
71096;DHT22;58753;49.440;11.126;2024-01-15T11:53:45;-0.19;86.17
71096;DHT22;58753;49.440;11.126;2024-01-15T11:56:15;-0.17;86.25
71096;DHT22;58753;49.440;11.126;2024-01-15T11:58:44;-0.10;86.45
71096;DHT22;58753;49.440;11.126;2024-01-15T12:01:15;-0.07;86.15
71096;DHT22;58753;49.440;11.126;2024-01-15T12:03:40;-0.07;86.03
71096;DHT22;58753;49.440;11.126;2024-01-15T12:06:06;-0.07;86.21
71096;DHT22;58753;49.440;11.126;2024-01-15T12:08:32;-0.11;86.29
71096;DHT22;58753;49.440;11.126;2024-01-15T12:10:58;-0.14;86.32
71096;DHT22;58753;49.440;11.126;2024-01-15T12:13:27;-0.17;86.54
71096;DHT22;58753;49.440;11.126;2024-01-15T12:15:56;-0.19;86.33
71096;DHT22;58753;49.440;11.126;2024-01-15T12:18:21;-0.20;86.44
71096;DHT22;58753;49.440;11.126;2024-01-15T12:20:47;-0.27;86.70
71096;DHT22;58753;49.440;11.126;2024-01-15T12:23:12;-0.29;86.86
71096;DHT22;58753;49.440;11.126;2024-01-15T12:25:39;-0.30;87.18
71096;DHT22;58753;49.440;11.126;2024-01-15T12:28:05;-0.26;87.26
71096;DHT22;58753;49.440;11.126;2024-01-15T12:30:30;-0.24;87.62
71096;DHT22;58753;49.440;11.126;2024-01-15T12:33:00;-0.21;87.65
71096;DHT22;58753;49.440;11.126;2024-01-15T12:35:26;-0.21;87.47
71096;DHT22;58753;49.440;11.126;2024-01-15T12:37:56;-0.20;87.82
71096;DHT22;58753;49.440;11.126;2024-01-15T12:40:23;-0.17;87.93
71096;DHT22;58753;49.440;11.126;2024-01-15T12:42:48;-0.20;88.10
71096;DHT22;58753;49.440;11.126;2024-01-15T12:45:14;-0.14;88.25
71096;DHT22;58753;49.440;11.126;2024-01-15T12:47:43;-0.14;87.96
71096;DHT22;58753;49.440;11.126;2024-01-15T12:50:09;-0.09;88.41
71096;DHT22;58753;49.440;11.126;2024-01-15T12:52:35;-0.02;88.33
71096;DHT22;58753;49.440;11.126;2024-01-15T12:55:06;-0.02;88.06
71096;DHT22;58753;49.440;11.126;2024-01-15T12:57:32;0.02;88.04
71096;DHT22;58753;49.440;11.126;2024-01-15T12:59:57;0.02;88.02
71096;DHT22;58753;49.440;11.126;2024-01-15T13:02:23;0.00;87.48
71096;DHT22;58753;49.440;11.126;2024-01-15T13:04:50;-0.07;87.62
71096;DHT22;58753;49.440;11.126;2024-01-15T13:07:19;-0.14;87.71
71096;DHT22;58753;49.440;11.126;2024-01-15T13:09:44;-0.16;87.72
71096;DHT22;58753;49.440;11.126;2024-01-15T13:12:10;-0.29;87.56
71096;DHT22;58753;49.440;11.126;2024-01-15T13:14:40;-0.33;87.65
71096;DHT22;58753;49.440;11.126;2024-01-15T13:17:06;-0.38;87.94
71096;DHT22;58753;49.440;11.126;2024-01-15T13:19:34;-0.34;88.07
71096;DHT22;58753;49.440;11.126;2024-01-15T13:21:59;-0.36;88.20
71096;DHT22;58753;49.440;11.126;2024-01-15T13:24:25;-0.37;88.24
71096;DHT22;58753;49.440;11.126;2024-01-15T13:26:50;-0.37;88.35
71096;DHT22;58753;49.440;11.126;2024-01-15T13:29:18;-0.40;88.33
71096;DHT22;58753;49.440;11.126;2024-01-15T13:31:47;-0.47;88.38
71096;DHT22;58753;49.440;11.126;2024-01-15T13:34:15;-0.51;88.57
71096;DHT22;58753;49.440;11.126;2024-01-15T13:36:40;-0.51;88.64
71096;DHT22;58753;49.440;11.126;2024-01-15T13:39:07;-0.51;88.75
71096;DHT22;58753;49.440;11.126;2024-01-15T13:41:34;-0.51;88.99
71096;DHT22;58753;49.440;11.126;2024-01-15T13:44:02;-0.50;89.05
71096;DHT22;58753;49.440;11.126;2024-01-15T13:46:32;-0.50;89.14
71096;DHT22;58753;49.440;11.126;2024-01-15T13:49:01;-0.51;89.29
71096;DHT22;58753;49.440;11.126;2024-01-15T13:51:27;-0.51;89.37
71096;DHT22;58753;49.440;11.126;2024-01-15T13:53:52;-0.50;89.29
71096;DHT22;58753;49.440;11.126;2024-01-15T13:56:20;-0.54;89.39
71096;DHT22;58753;49.440;11.126;2024-01-15T13:58:47;-0.56;89.58
71096;DHT22;58753;49.440;11.126;2024-01-15T14:01:16;-0.57;89.66
71096;DHT22;58753;49.440;11.126;2024-01-15T14:03:45;-0.61;89.73
71096;DHT22;58753;49.440;11.126;2024-01-15T14:06:10;-0.63;89.92
71096;DHT22;58753;49.440;11.126;2024-01-15T14:08:36;-0.64;90.13
71096;DHT22;58753;49.440;11.126;2024-01-15T14:11:02;-0.61;90.29
71096;DHT22;58753;49.440;11.126;2024-01-15T14:13:28;-0.65;90.42
71096;DHT22;58753;49.440;11.126;2024-01-15T14:15:53;-0.65;90.60
71096;DHT22;58753;49.440;11.126;2024-01-15T14:18:18;-0.63;90.84
71096;DHT22;58753;49.440;11.126;2024-01-15T14:20:44;-0.65;90.69
71096;DHT22;58753;49.440;11.126;2024-01-15T14:23:09;-0.64;90.80
71096;DHT22;58753;49.440;11.126;2024-01-15T14:25:37;-0.63;90.94
71096;DHT22;58753;49.440;11.126;2024-01-15T14:28:05;-0.61;91.02
71096;DHT22;58753;49.440;11.126;2024-01-15T14:30:30;-0.57;91.20
71096;DHT22;58753;49.440;11.126;2024-01-15T14:32:55;-0.53;91.34
71096;DHT22;58753;49.440;11.126;2024-01-15T14:35:21;-0.47;91.51
71096;DHT22;58753;49.440;11.126;2024-01-15T14:37:46;-0.45;91.16
71096;DHT22;58753;49.440;11.126;2024-01-15T14:40:16;-0.49;91.06
71096;DHT22;58753;49.440;11.126;2024-01-15T14:42:41;-0.51;91.26
71096;DHT22;58753;49.440;11.126;2024-01-15T14:45:07;-0.56;91.10
71096;DHT22;58753;49.440;11.126;2024-01-15T14:47:44;-0.63;91.12
71096;DHT22;58753;49.440;11.126;2024-01-15T14:50:12;-0.65;91.17
71096;DHT22;58753;49.440;11.126;2024-01-15T14:52:38;-0.68;91.15
71096;DHT22;58753;49.440;11.126;2024-01-15T14:55:04;-0.73;91.21
71096;DHT22;58753;49.440;11.126;2024-01-15T14:57:30;-0.77;91.22
71096;DHT22;58753;49.440;11.126;2024-01-15T14:59:55;-0.75;91.27
71096;DHT22;58753;49.440;11.126;2024-01-15T15:02:20;-0.77;91.32
71096;DHT22;58753;49.440;11.126;2024-01-15T15:04:46;-0.77;91.27
71096;DHT22;58753;49.440;11.126;2024-01-15T15:07:14;-0.77;91.41
71096;DHT22;58753;49.440;11.126;2024-01-15T15:09:42;-0.74;91.41
71096;DHT22;58753;49.440;11.126;2024-01-15T15:12:07;-0.73;91.41
71096;DHT22;58753;49.440;11.126;2024-01-15T15:14:43;-0.63;91.40
71096;DHT22;58753;49.440;11.126;2024-01-15T15:17:11;-0.65;91.15
71096;DHT22;58753;49.440;11.126;2024-01-15T15:19:37;-0.64;91.03
71096;DHT22;58753;49.440;11.126;2024-01-15T15:22:09;-0.68;91.12